createdAt,value
2018-10-06T00:00:37.630Z,71.60
2018-10-06T00:03:06.587Z,74.10
2018-10-06T00:05:35.622Z,77.40
2018-10-06T00:08:04.556Z,76.50
2018-10-06T00:10:33.606Z,77.50
2018-10-06T00:13:02.553Z,78.10
2018-10-06T00:15:31.514Z,80.30
2018-10-06T00:18:00.493Z,80.20
2018-10-06T00:20:29.388Z,82.00
2018-10-06T00:22:58.442Z,82.40
2018-10-06T00:25:27.494Z,83.40
2018-10-06T00:27:56.574Z,83.10
2018-10-06T00:30:25.541Z,84.10
2018-10-06T00:32:54.535Z,84.00
2018-10-06T00:35:23.531Z,85.60
2018-10-06T00:37:52.470Z,84.90
2018-10-06T00:40:21.367Z,85.70
2018-10-06T00:42:50.335Z,86.00
2018-10-06T00:45:19.327Z,86.00
2018-10-06T00:47:48.350Z,86.10
2018-10-06T00:50:17.398Z,86.90
2018-10-06T00:52:46.325Z,87.00
2018-10-06T00:55:15.299Z,87.40
2018-10-06T00:57:44.228Z,87.20
2018-10-06T01:00:13.068Z,87.90
2018-10-06T01:02:42.064Z,88.20
2018-10-06T01:05:11.080Z,88.20
2018-10-06T01:07:40.011Z,88.80
2018-10-06T01:10:08.957Z,89.20
2018-10-06T01:12:37.882Z,89.10
2018-10-06T01:15:06.895Z,89.70
2018-10-06T01:17:35.795Z,90.00
2018-10-06T01:20:04.993Z,90.00
2018-10-06T01:22:33.920Z,90.00
2018-10-06T01:25:02.823Z,90.30
2018-10-06T01:27:31.787Z,90.20
2018-10-06T01:30:00.774Z,90.40
2018-10-06T01:32:29.772Z,90.60
2018-10-06T01:34:58.734Z,90.60
2018-10-06T01:37:27.733Z,90.80
2018-10-06T01:39:56.659Z,90.60
2018-10-06T01:42:25.691Z,90.80
2018-10-06T01:44:54.652Z,90.90
2018-10-06T01:47:23.641Z,91.00
2018-10-06T01:49:52.606Z,91.30
2018-10-06T01:52:21.590Z,91.30
2018-10-06T01:54:50.594Z,91.30
2018-10-06T01:57:19.639Z,91.30
2018-10-06T01:59:48.571Z,91.50
2018-10-06T02:02:17.460Z,91.60
2018-10-06T02:04:46.468Z,91.80
2018-10-06T02:07:15.470Z,91.90
2018-10-06T02:09:44.378Z,92.00
2018-10-06T02:12:13.400Z,92.00
2018-10-06T02:14:42.337Z,92.30
2018-10-06T02:17:11.255Z,92.30
2018-10-06T02:19:40.143Z,92.50
2018-10-06T02:22:09.084Z,92.70
2018-10-06T02:24:38.090Z,92.70
2018-10-06T02:27:07.515Z,92.70
2018-10-06T02:29:36.510Z,92.70
2018-10-06T02:32:05.115Z,92.90
2018-10-06T02:34:34.130Z,93.00
2018-10-06T02:37:02.998Z,93.00
2018-10-06T02:39:31.947Z,93.00
2018-10-06T02:42:01.123Z,93.10
2018-10-06T02:44:30.154Z,93.20
2018-10-06T02:46:59.210Z,93.20
2018-10-06T02:49:28.180Z,93.30
2018-10-06T02:51:57.121Z,93.30
2018-10-06T02:54:26.131Z,93.50
2018-10-06T02:56:54.993Z,93.60
2018-10-06T02:59:24.000Z,93.70
2018-10-06T03:01:53.030Z,93.60
2018-10-06T03:04:22.011Z,93.80
2018-10-06T03:06:51.013Z,93.80
2018-10-06T03:09:19.948Z,94.00
2018-10-06T03:11:48.988Z,94.20
2018-10-06T03:14:17.927Z,94.30
2018-10-06T03:16:46.956Z,94.20
2018-10-06T03:19:15.962Z,94.30
2018-10-06T03:21:44.892Z,94.30
2018-10-06T03:24:13.910Z,94.40
2018-10-06T03:26:42.931Z,94.50
2018-10-06T03:29:11.861Z,94.50
2018-10-06T03:31:40.881Z,94.50
2018-10-06T03:34:19.123Z,94.60
2018-10-06T03:36:48.143Z,94.70
2018-10-06T03:39:17.211Z,94.60
2018-10-06T03:41:46.250Z,94.50
2018-10-06T03:44:15.250Z,94.60
2018-10-06T03:46:44.215Z,94.60
2018-10-06T03:49:13.143Z,94.70
2018-10-06T03:51:42.150Z,94.80
2018-10-06T03:54:12.098Z,94.70
2018-10-06T03:56:42.673Z,94.80
2018-10-06T03:59:11.773Z,94.80
2018-10-06T04:01:40.742Z,94.90
2018-10-06T04:04:09.670Z,95.00
2018-10-06T04:06:38.726Z,95.00
2018-10-06T04:09:09.036Z,95.20
2018-10-06T04:11:38.167Z,95.30
2018-10-06T04:14:07.620Z,95.40
2018-10-06T04:16:36.693Z,95.30
2018-10-06T04:19:05.685Z,95.40
2018-10-06T04:21:47.105Z,95.50
2018-10-06T04:24:17.213Z,95.60
2018-10-06T04:26:46.199Z,95.60
2018-10-06T04:29:15.202Z,95.60
2018-10-06T04:31:44.133Z,95.60
2018-10-06T04:34:13.137Z,95.60
2018-10-06T04:36:42.042Z,95.70
2018-10-06T04:39:12.714Z,95.70
2018-10-06T04:41:41.707Z,95.70
2018-10-06T04:44:11.190Z,95.70
2018-10-06T04:46:40.710Z,96.00
2018-10-06T04:49:09.867Z,96.00
2018-10-06T04:51:38.866Z,96.10
2018-10-06T04:54:08.509Z,96.00
2018-10-06T04:56:37.569Z,96.00
2018-10-06T04:59:06.595Z,96.00
2018-10-06T05:01:35.672Z,96.00
2018-10-06T05:04:04.642Z,96.10
2018-10-06T05:06:33.660Z,96.30
2018-10-06T05:09:02.761Z,96.30
2018-10-06T05:11:31.731Z,96.30
2018-10-06T05:14:00.655Z,96.30
2018-10-06T05:16:29.734Z,96.40
2018-10-06T05:18:58.693Z,96.40
2018-10-06T05:21:27.670Z,96.40
2018-10-06T05:23:56.647Z,96.30
2018-10-06T05:26:25.570Z,96.40
2018-10-06T05:28:54.564Z,96.30
2018-10-06T05:31:23.597Z,96.40
2018-10-06T05:33:52.548Z,96.30
2018-10-06T05:36:21.552Z,96.40
2018-10-06T05:38:50.477Z,96.40
2018-10-06T05:41:19.530Z,96.40
2018-10-06T05:43:48.425Z,96.40
2018-10-06T05:46:17.493Z,96.40
2018-10-06T05:48:46.498Z,96.40
2018-10-06T05:51:15.552Z,96.40
2018-10-06T05:53:44.624Z,96.40
2018-10-06T05:56:13.555Z,96.40
2018-10-06T05:58:42.591Z,96.40
2018-10-06T06:01:11.669Z,96.30
2018-10-06T06:03:40.630Z,96.40
2018-10-06T06:06:09.755Z,96.40
2018-10-06T06:08:38.885Z,96.50
2018-10-06T06:11:07.883Z,96.40
2018-10-06T06:13:36.843Z,96.50
2018-10-06T06:16:05.825Z,96.80
2018-10-06T06:18:34.693Z,96.40
2018-10-06T06:21:03.726Z,96.30
2018-10-06T06:23:32.733Z,96.50
2018-10-06T06:26:01.810Z,96.50
2018-10-06T06:28:30.734Z,96.40
2018-10-06T06:30:59.655Z,96.40
2018-10-06T06:33:28.694Z,96.30
2018-10-06T06:35:57.754Z,96.70
2018-10-06T06:38:31.413Z,96.60
2018-10-06T06:41:00.519Z,96.80
2018-10-06T06:43:29.488Z,96.90
2018-10-06T06:45:58.476Z,96.80
2018-10-06T06:48:27.416Z,96.80
2018-10-06T06:50:56.548Z,96.80
2018-10-06T06:53:25.650Z,96.80
2018-10-06T06:55:54.638Z,96.80
2018-10-06T06:58:23.662Z,96.80
2018-10-06T07:00:52.754Z,96.70
2018-10-06T07:03:21.732Z,96.70
2018-10-06T07:05:50.755Z,96.80
2018-10-06T07:08:19.821Z,96.80
2018-10-06T07:10:48.890Z,96.70
2018-10-06T07:13:17.902Z,96.80
2018-10-06T07:15:46.921Z,96.80
2018-10-06T07:18:15.885Z,96.70
2018-10-06T07:20:44.848Z,96.70
2018-10-06T07:23:13.812Z,96.60
2018-10-06T07:25:49.437Z,96.50
2018-10-06T07:28:18.466Z,96.50
2018-10-06T07:30:47.441Z,96.60
2018-10-06T07:33:16.412Z,95.60
2018-10-06T07:35:45.389Z,95.80
2018-10-06T07:38:14.437Z,95.50
2018-10-06T07:40:43.497Z,95.50
2018-10-06T07:43:12.459Z,95.30
2018-10-06T07:45:41.384Z,95.30
2018-10-06T07:48:10.447Z,95.10
2018-10-06T07:50:39.461Z,94.90
2018-10-06T07:53:08.444Z,94.50
2018-10-06T07:55:37.417Z,94.20
2018-10-06T07:58:06.421Z,93.70
2018-10-06T08:00:35.435Z,93.30
2018-10-06T08:03:04.444Z,93.00
2018-10-06T08:05:33.384Z,92.40
2018-10-06T08:08:02.461Z,91.90
2018-10-06T08:10:31.382Z,91.20
2018-10-06T08:13:00.326Z,90.70
2018-10-06T08:15:29.320Z,90.40
2018-10-06T08:17:58.291Z,89.30
2018-10-06T08:20:27.386Z,88.20
2018-10-06T08:22:56.345Z,87.00
2018-10-06T08:25:25.295Z,86.80
2018-10-06T08:27:54.242Z,85.30
2018-10-06T08:30:23.182Z,85.40
2018-10-06T08:32:52.201Z,83.90
2018-10-06T08:35:21.123Z,77.70
2018-10-06T08:37:50.510Z,77.80
2018-10-06T08:40:19.412Z,78.70
2018-10-06T08:42:48.505Z,75.40
2018-10-06T08:45:17.454Z,75.00
2018-10-06T08:47:46.452Z,76.70
2018-10-06T08:50:16.151Z,76.30
2018-10-06T08:52:45.190Z,66.00
2018-10-06T08:55:14.204Z,63.70
2018-10-06T08:57:43.179Z,69.00
2018-10-06T09:00:12.206Z,67.90
2018-10-06T09:02:41.211Z,67.10
2018-10-06T09:05:10.176Z,65.70
2018-10-06T09:07:39.248Z,61.20
2018-10-06T09:10:09.175Z,60.50
2018-10-06T09:12:38.176Z,65.10
2018-10-06T09:15:07.541Z,65.30
2018-10-06T09:17:36.453Z,64.60
2018-10-06T09:20:05.463Z,62.90
2018-10-06T09:22:34.374Z,60.90
2018-10-06T09:25:03.511Z,59.10
2018-10-06T09:27:32.533Z,57.80
2018-10-06T09:30:01.495Z,58.90
2018-10-06T09:32:30.502Z,58.80
2018-10-06T09:34:59.416Z,58.40
2018-10-06T09:37:28.783Z,58.30
2018-10-06T09:39:57.789Z,57.40
2018-10-06T09:42:26.792Z,56.80
2018-10-06T09:45:06.379Z,57.20
2018-10-06T09:47:35.334Z,56.40
2018-10-06T09:50:04.331Z,55.70
2018-10-06T09:52:33.290Z,56.60
2018-10-06T09:55:02.294Z,56.10
2018-10-06T09:57:31.240Z,55.60
2018-10-06T10:00:00.519Z,54.00
2018-10-06T10:02:34.653Z,53.90
2018-10-06T10:05:08.893Z,53.30
2018-10-06T10:07:37.850Z,54.30
2018-10-06T10:10:07.677Z,53.70
2018-10-06T10:12:36.763Z,52.60
2018-10-06T10:15:05.760Z,53.80
2018-10-06T10:17:34.926Z,53.80
2018-10-06T10:20:03.723Z,53.80
2018-10-06T10:22:32.634Z,53.60
2018-10-06T10:25:01.757Z,46.60
2018-10-06T10:27:30.710Z,50.20
2018-10-06T10:29:59.789Z,51.30
2018-10-06T10:32:28.716Z,47.30
2018-10-06T10:34:57.595Z,46.50
2018-10-06T10:37:26.570Z,48.00
2018-10-06T10:39:55.542Z,45.60
2018-10-06T10:42:24.586Z,45.50
2018-10-06T10:44:53.538Z,46.80
2018-10-06T10:47:22.583Z,44.10
2018-10-06T10:49:51.965Z,43.70
2018-10-06T10:52:20.983Z,42.50
2018-10-06T10:54:49.870Z,42.10
2018-10-06T10:57:18.860Z,43.10
2018-10-06T10:59:47.952Z,43.80
2018-10-06T11:02:16.850Z,42.00
2018-10-06T11:04:46.053Z,42.00
2018-10-06T11:07:14.926Z,41.50
2018-10-06T11:09:43.904Z,42.20
2018-10-06T11:12:12.928Z,41.70
2018-10-06T11:14:41.956Z,41.70
2018-10-06T11:17:11.259Z,41.60
2018-10-06T11:19:40.330Z,41.40
2018-10-06T11:22:09.290Z,40.90
2018-10-06T11:24:38.342Z,41.80
2018-10-06T11:27:07.380Z,41.60
2018-10-06T11:29:36.419Z,42.00
2018-10-06T11:32:05.368Z,40.90
2018-10-06T11:34:34.578Z,41.50
2018-10-06T11:37:03.596Z,40.90
2018-10-06T11:39:32.678Z,40.50
2018-10-06T11:42:01.870Z,41.20
2018-10-06T11:44:30.850Z,41.10
2018-10-06T11:46:59.779Z,40.70
2018-10-06T11:49:28.694Z,40.40
2018-10-06T11:51:57.770Z,41.50
2018-10-06T11:54:26.751Z,40.50
2018-10-06T11:56:55.799Z,40.50
2018-10-06T11:59:24.777Z,40.70
2018-10-06T12:01:53.808Z,40.30
2018-10-06T12:04:28.112Z,40.50
2018-10-06T12:06:57.173Z,40.00
2018-10-06T12:09:26.159Z,39.60
2018-10-06T12:11:55.214Z,40.00
2018-10-06T12:14:24.219Z,39.50
2018-10-06T12:16:53.137Z,39.60
2018-10-06T12:19:22.070Z,40.40
2018-10-06T12:21:51.056Z,40.80
2018-10-06T12:24:20.041Z,40.70
2018-10-06T12:26:49.031Z,41.20
2018-10-06T12:29:18.080Z,39.80
2018-10-06T12:31:46.969Z,40.00
2018-10-06T12:34:15.934Z,40.60
2018-10-06T12:36:44.938Z,39.60
2018-10-06T12:39:13.956Z,39.00
2018-10-06T12:41:42.867Z,39.00
2018-10-06T12:44:11.890Z,39.40
2018-10-06T12:46:40.812Z,38.90
2018-10-06T12:49:09.743Z,38.00
2018-10-06T12:51:38.703Z,38.90
2018-10-06T12:54:07.795Z,39.00
2018-10-06T12:56:36.733Z,38.20
2018-10-06T12:59:05.854Z,38.50
2018-10-06T13:01:35.049Z,38.80
2018-10-06T13:04:03.962Z,39.00
2018-10-06T13:06:33.007Z,40.30
2018-10-06T13:09:01.915Z,40.60
2018-10-06T13:11:34.048Z,40.60
2018-10-06T13:14:03.114Z,39.80
2018-10-06T13:16:32.090Z,39.60
2018-10-06T13:19:01.128Z,38.30
2018-10-06T13:21:30.063Z,36.60
2018-10-06T13:23:59.100Z,34.90
2018-10-06T13:26:28.030Z,34.20
2018-10-06T13:28:57.210Z,34.90
2018-10-06T13:31:26.125Z,35.20
2018-10-06T13:33:55.030Z,34.70
2018-10-06T13:36:30.085Z,33.80
2018-10-06T13:38:59.081Z,33.80
2018-10-06T13:41:28.145Z,34.70
2018-10-06T13:43:57.132Z,35.70
2018-10-06T13:46:26.238Z,37.20
2018-10-06T13:48:55.169Z,38.50
2018-10-06T13:51:24.068Z,40.90
2018-10-06T13:53:53.134Z,41.60
2018-10-06T13:56:22.199Z,42.90
2018-10-06T13:58:51.136Z,44.50
2018-10-06T14:01:20.252Z,44.70
2018-10-06T14:03:49.184Z,46.50
2018-10-06T14:06:18.122Z,45.50
2018-10-06T14:08:47.113Z,46.20
2018-10-06T14:11:16.167Z,46.70
2018-10-06T14:13:45.175Z,47.40
2018-10-06T14:16:14.095Z,46.30
2018-10-06T14:18:43.027Z,46.80
2018-10-06T14:21:11.996Z,47.10
2018-10-06T14:23:40.903Z,46.70
2018-10-06T14:26:10.061Z,46.60
2018-10-06T14:28:38.945Z,46.90
2018-10-06T14:31:07.909Z,46.90
2018-10-06T14:33:37.000Z,46.50
2018-10-06T14:36:05.878Z,47.20
2018-10-06T14:38:34.891Z,47.00
2018-10-06T14:41:04.035Z,47.20
2018-10-06T14:43:33.245Z,48.00
2018-10-06T14:46:02.271Z,47.80
2018-10-06T14:48:31.191Z,48.30
2018-10-06T14:51:00.999Z,48.30
2018-10-06T14:53:29.930Z,48.60
2018-10-06T14:55:58.799Z,48.90
2018-10-06T14:58:27.713Z,49.30
2018-10-06T15:00:56.621Z,49.30
2018-10-06T15:03:25.580Z,49.70
2018-10-06T15:05:54.560Z,49.90
2018-10-06T15:08:23.576Z,49.90
2018-10-06T15:10:52.538Z,50.60
2018-10-06T15:13:21.476Z,50.80
2018-10-06T15:15:50.478Z,51.20
2018-10-06T15:18:19.591Z,51.40
2018-10-06T15:20:48.638Z,51.20
2018-10-06T15:23:17.572Z,51.60
2018-10-06T15:25:46.525Z,51.80
2018-10-06T15:28:15.454Z,52.10
2018-10-06T15:30:44.440Z,51.90
2018-10-06T15:33:13.393Z,52.10
2018-10-06T15:35:42.396Z,52.30
2018-10-06T15:38:11.242Z,52.40
2018-10-06T15:40:40.214Z,52.70
2018-10-06T15:43:09.196Z,53.20
2018-10-06T15:45:38.245Z,53.50
2018-10-06T15:48:07.226Z,53.50
2018-10-06T15:50:37.005Z,54.10
2018-10-06T15:53:06.277Z,54.70
2018-10-06T15:55:35.260Z,54.80
2018-10-06T15:58:04.424Z,54.70
2018-10-06T16:00:33.451Z,55.30
2018-10-06T16:03:02.637Z,55.60
2018-10-06T16:05:31.891Z,55.60
2018-10-06T16:08:00.883Z,55.60
2018-10-06T16:10:29.912Z,56.00
2018-10-06T16:12:58.870Z,56.50
2018-10-06T16:15:27.817Z,57.10
2018-10-06T16:17:56.836Z,57.50
2018-10-06T16:20:25.831Z,57.80
2018-10-06T16:22:54.736Z,57.80
2018-10-06T16:25:23.717Z,58.10
2018-10-06T16:27:52.705Z,58.50
2018-10-06T16:30:22.833Z,59.00
2018-10-06T16:32:51.805Z,58.90
2018-10-06T16:35:20.802Z,59.20
2018-10-06T16:37:49.747Z,59.40
2018-10-06T16:40:18.721Z,59.50
2018-10-06T16:42:47.684Z,59.80
2018-10-06T16:45:16.733Z,60.50
2018-10-06T16:47:45.661Z,60.80
2018-10-06T16:50:14.692Z,62.10
2018-10-06T16:52:43.608Z,62.50
2018-10-06T16:55:12.481Z,62.60
2018-10-06T16:57:41.489Z,63.30
2018-10-06T17:00:10.411Z,64.20
2018-10-06T17:02:39.457Z,63.90
2018-10-06T17:05:08.427Z,64.80
2018-10-06T17:07:37.457Z,64.80
2018-10-06T17:10:06.892Z,66.00
2018-10-06T17:12:36.040Z,66.30
2018-10-06T17:15:05.225Z,66.70
2018-10-06T17:17:34.146Z,66.60
2018-10-06T17:20:03.084Z,66.90
2018-10-06T17:22:32.228Z,67.30
2018-10-06T17:25:01.321Z,68.10
2018-10-06T17:27:33.593Z,68.90
2018-10-06T17:30:02.647Z,69.60
2018-10-06T17:32:31.731Z,70.70
2018-10-06T17:35:00.656Z,70.70
2018-10-06T17:37:29.574Z,71.00
2018-10-06T17:39:58.500Z,70.90
2018-10-06T17:42:27.440Z,71.70
2018-10-06T17:44:56.395Z,72.30
2018-10-06T17:47:25.420Z,73.50
2018-10-06T17:49:54.431Z,73.20
2018-10-06T17:52:23.464Z,73.60
2018-10-06T17:54:52.422Z,74.70
2018-10-06T17:57:21.469Z,74.80
2018-10-06T17:59:50.652Z,75.00
2018-10-06T18:02:19.500Z,75.80
2018-10-06T18:04:48.578Z,76.50
2018-10-06T18:07:17.513Z,76.60
2018-10-06T18:09:46.410Z,76.60
2018-10-06T18:12:15.478Z,76.60
2018-10-06T18:14:51.820Z,77.20
2018-10-06T18:17:20.850Z,77.40
2018-10-06T18:19:49.926Z,77.10
2018-10-06T18:22:18.925Z,77.30
2018-10-06T18:24:48.059Z,77.40
2018-10-06T18:27:19.967Z,77.80
2018-10-06T18:29:48.982Z,76.90
2018-10-06T18:32:19.045Z,76.70
2018-10-06T18:34:48.346Z,77.70
2018-10-06T18:37:18.784Z,78.80
2018-10-06T18:39:48.353Z,79.90
2018-10-06T18:42:17.360Z,79.90
2018-10-06T18:44:46.367Z,80.50
2018-10-06T18:47:15.393Z,81.10
2018-10-06T18:49:45.079Z,81.40
2018-10-06T18:52:14.072Z,82.10
2018-10-06T18:54:43.094Z,82.60
2018-10-06T18:57:12.115Z,83.00
2018-10-06T18:59:41.197Z,83.60
2018-10-06T19:02:10.321Z,83.90
2018-10-06T19:04:39.436Z,84.10
2018-10-06T19:07:08.551Z,84.50
2018-10-06T19:09:37.537Z,84.50
2018-10-06T19:12:06.630Z,84.80
2018-10-06T19:14:35.674Z,85.50
2018-10-06T19:17:04.708Z,84.70
2018-10-06T19:19:33.728Z,84.90
2018-10-06T19:22:02.757Z,84.90
2018-10-06T19:24:31.754Z,84.50
2018-10-06T19:27:00.932Z,84.70
2018-10-06T19:29:30.258Z,84.40
2018-10-06T19:31:59.329Z,84.50
2018-10-06T19:34:28.417Z,85.30
2018-10-06T19:36:57.369Z,86.00
2018-10-06T19:39:26.368Z,86.40
2018-10-06T19:41:55.432Z,86.00
2018-10-06T19:44:24.506Z,86.90
2018-10-06T19:46:53.600Z,87.00
2018-10-06T19:49:22.634Z,87.50
2018-10-06T19:51:51.638Z,87.60
2018-10-06T19:54:20.656Z,89.10
2018-10-06T19:56:49.705Z,89.20
2018-10-06T19:59:18.776Z,89.80
2018-10-06T20:01:47.756Z,89.90
2018-10-06T20:04:16.817Z,90.40
2018-10-06T20:06:45.877Z,90.30
2018-10-06T20:09:14.827Z,90.70
2018-10-06T20:11:43.831Z,90.50
2018-10-06T20:14:12.870Z,90.40
2018-10-06T20:16:41.917Z,90.40
2018-10-06T20:19:10.965Z,90.40
2018-10-06T20:21:39.998Z,90.30
2018-10-06T20:24:08.939Z,90.30
2018-10-06T20:26:37.961Z,90.20
2018-10-06T20:29:07.104Z,90.10
2018-10-06T20:31:36.125Z,90.30
2018-10-06T20:34:05.115Z,90.30
2018-10-06T20:36:34.097Z,90.30
2018-10-06T20:39:03.257Z,90.30
2018-10-06T20:41:32.294Z,90.50
2018-10-06T20:44:01.348Z,90.40
2018-10-06T20:46:30.416Z,90.20
2018-10-06T20:48:59.293Z,90.20
2018-10-06T20:51:28.290Z,90.10
2018-10-06T20:53:57.309Z,90.00
2018-10-06T20:56:26.186Z,90.10
2018-10-06T20:58:55.177Z,90.10
2018-10-06T21:01:24.187Z,90.10
2018-10-06T21:03:53.219Z,90.10
2018-10-06T21:06:22.282Z,90.10
2018-10-06T21:08:51.355Z,90.00
2018-10-06T21:11:20.423Z,89.90
2018-10-06T21:13:49.508Z,89.60
2018-10-06T21:16:18.528Z,89.70
2018-10-06T21:18:47.432Z,90.00
2018-10-06T21:21:16.466Z,90.00
2018-10-06T21:23:45.474Z,90.10
2018-10-06T21:26:14.457Z,90.20
2018-10-06T21:28:43.416Z,90.30
2018-10-06T21:31:12.466Z,90.50
2018-10-06T21:33:41.534Z,90.50
2018-10-06T21:36:10.604Z,90.50
2018-10-06T21:38:39.616Z,90.40
2018-10-06T21:41:08.610Z,90.50
2018-10-06T21:43:37.601Z,90.80
2018-10-06T21:46:06.629Z,90.80
2018-10-06T21:48:35.523Z,91.00
2018-10-06T21:51:04.632Z,91.40
2018-10-06T21:53:33.657Z,91.40
2018-10-06T21:56:02.634Z,91.60
2018-10-06T21:58:31.582Z,91.90
2018-10-06T22:01:05.711Z,91.90
2018-10-06T22:03:34.711Z,92.10
2018-10-06T22:06:08.050Z,92.30
2018-10-06T22:08:37.150Z,92.60
2018-10-06T22:11:06.113Z,92.30
2018-10-06T22:13:35.252Z,92.40
2018-10-06T22:16:04.246Z,92.20
2018-10-06T22:18:33.205Z,92.20
2018-10-06T22:21:02.098Z,92.20
2018-10-06T22:23:31.062Z,92.10
2018-10-06T22:26:00.097Z,91.80
2018-10-06T22:28:29.121Z,91.70
2018-10-06T22:30:58.127Z,91.60
2018-10-06T22:33:27.368Z,91.60
2018-10-06T22:35:56.478Z,91.50
2018-10-06T22:38:25.521Z,91.60
2018-10-06T22:40:54.606Z,91.30
2018-10-06T22:43:23.475Z,91.10
2018-10-06T22:45:52.457Z,90.80
2018-10-06T22:48:21.441Z,90.70
2018-10-06T22:50:50.388Z,90.70
2018-10-06T22:53:19.357Z,90.70
2018-10-06T22:55:48.376Z,90.60
2018-10-06T22:58:17.661Z,90.80
2018-10-06T23:00:46.624Z,90.90
2018-10-06T23:03:15.637Z,90.90
2018-10-06T23:05:44.573Z,91.10
2018-10-06T23:08:13.601Z,91.20
2018-10-06T23:10:42.893Z,91.30
2018-10-06T23:13:11.894Z,91.40
2018-10-06T23:15:40.838Z,91.40
2018-10-06T23:18:09.793Z,91.50
2018-10-06T23:20:38.766Z,91.40
2018-10-06T23:23:07.732Z,91.50
2018-10-06T23:25:36.633Z,91.40
2018-10-06T23:28:05.771Z,91.50
2018-10-06T23:30:34.770Z,91.50
2018-10-06T23:33:03.660Z,91.60
2018-10-06T23:35:32.664Z,91.60
2018-10-06T23:38:01.753Z,91.80
2018-10-06T23:40:30.707Z,91.90
2018-10-06T23:42:59.785Z,92.10
2018-10-06T23:45:28.775Z,92.40
2018-10-06T23:47:57.804Z,92.60
2018-10-06T23:50:26.771Z,92.80
2018-10-06T23:52:55.830Z,93.10
2018-10-06T23:55:24.800Z,93.20
2018-10-06T23:57:53.943Z,93.40
